createdAt,value
2023-04-11T00:02:02.905Z,29.02
2023-04-11T00:04:31.329Z,25.80
2023-04-11T00:06:59.871Z,40.42
2023-04-11T00:09:28.191Z,35.67
2023-04-11T00:12:01.840Z,28.30
2023-04-11T00:14:32.298Z,25.15
2023-04-11T00:17:01.139Z,26.58
2023-04-11T00:19:29.656Z,25.50
2023-04-11T00:21:58.564Z,23.35
2023-04-11T00:24:27.065Z,25.33
2023-04-11T00:26:58.082Z,32.70
2023-04-11T00:29:26.327Z,30.45
2023-04-11T00:31:56.789Z,29.75
2023-04-11T00:34:25.002Z,33.40
2023-04-11T00:36:53.510Z,29.75
2023-04-11T00:39:22.771Z,31.83
2023-04-11T00:41:51.276Z,45.00
2023-04-11T00:44:25.119Z,28.92
2023-04-11T00:46:53.636Z,30.33
2023-04-11T00:49:21.889Z,19.98
2023-04-11T00:51:50.713Z,30.25
2023-04-11T00:54:19.106Z,28.83
2023-04-11T00:56:47.821Z,33.63
2023-04-11T00:59:16.106Z,21.88
2023-04-11T01:01:46.073Z,25.42
2023-04-11T01:04:14.455Z,20.98
2023-04-11T01:06:43.044Z,27.77
2023-04-11T01:09:11.415Z,29.17
2023-04-11T01:11:40.201Z,26.48
2023-04-11T01:14:08.556Z,24.73
2023-04-11T01:16:37.372Z,28.63
2023-04-11T01:19:08.517Z,21.88
2023-04-11T01:21:37.882Z,23.42
2023-04-11T01:24:08.910Z,21.02
2023-04-11T01:26:37.416Z,26.08
2023-04-11T01:29:05.650Z,25.13
2023-04-11T01:31:34.243Z,24.40
2023-04-11T01:34:03.076Z,30.58
2023-04-11T01:36:32.347Z,28.95
2023-04-11T01:39:01.426Z,31.05
2023-04-11T01:41:32.508Z,25.65
2023-04-11T01:44:01.092Z,22.48
2023-04-11T01:46:29.651Z,25.67
2023-04-11T01:48:59.156Z,27.83
2023-04-11T01:51:28.300Z,21.92
2023-04-11T01:53:56.693Z,26.65
2023-04-11T01:56:25.210Z,22.05
2023-04-11T01:58:55.143Z,21.23
2023-04-11T02:01:23.788Z,29.57
2023-04-11T02:03:52.509Z,31.98
2023-04-11T02:06:21.276Z,22.50
2023-04-11T02:08:49.563Z,29.33
2023-04-11T02:11:18.134Z,19.08
2023-04-11T02:13:47.149Z,28.15
2023-04-11T02:16:18.003Z,24.17
2023-04-11T02:18:47.023Z,35.75
2023-04-11T02:21:15.448Z,22.65
2023-04-11T02:23:43.767Z,29.42
2023-04-11T02:26:12.200Z,25.45
2023-04-11T02:28:40.472Z,31.23
2023-04-11T02:31:09.257Z,34.10
2023-04-11T02:33:38.926Z,30.00
2023-04-11T02:36:08.109Z,29.93
2023-04-11T02:38:37.580Z,35.03
2023-04-11T02:41:08.463Z,33.22
2023-04-11T02:43:36.687Z,27.60
2023-04-11T02:46:12.796Z,26.80
2023-04-11T02:48:42.973Z,29.15
2023-04-11T02:51:11.484Z,31.75
2023-04-11T02:53:39.745Z,36.00
2023-04-11T02:56:11.023Z,23.35
2023-04-11T02:58:41.851Z,31.85
2023-04-11T03:01:12.067Z,26.15
2023-04-11T03:03:40.371Z,28.08
2023-04-11T03:06:10.928Z,25.58
2023-04-11T03:08:39.267Z,27.95
2023-04-11T03:11:07.956Z,34.80
2023-04-11T03:13:37.355Z,26.80
2023-04-11T03:16:06.526Z,23.42
2023-04-11T03:18:34.775Z,28.85
2023-04-11T03:21:03.389Z,30.98
2023-04-11T03:23:33.057Z,28.17
2023-04-11T03:26:01.575Z,31.90
2023-04-11T03:28:29.753Z,26.73
2023-04-11T03:30:58.249Z,30.20
2023-04-11T03:33:26.635Z,29.33
2023-04-11T03:35:55.153Z,34.28
2023-04-11T03:38:23.562Z,36.50
2023-04-11T03:40:53.770Z,36.58
2023-04-11T03:43:22.106Z,47.83
2023-04-11T03:45:51.684Z,34.30
2023-04-11T03:48:20.489Z,43.38
2023-04-11T03:50:49.214Z,39.50
2023-04-11T03:53:17.396Z,39.25
2023-04-11T03:55:45.888Z,41.72
2023-04-11T03:58:15.657Z,29.63
2023-04-11T04:00:44.118Z,30.92
2023-04-11T04:03:13.800Z,31.73
2023-04-11T04:05:42.761Z,43.22
2023-04-11T04:08:11.023Z,28.05
2023-04-11T04:10:39.519Z,29.05
2023-04-11T04:13:07.813Z,31.13
2023-04-11T04:15:38.075Z,33.30
2023-04-11T04:18:06.437Z,32.67
2023-04-11T04:20:35.193Z,35.28
2023-04-11T04:23:04.748Z,33.95
2023-04-11T04:25:33.309Z,29.83
2023-04-11T04:28:01.560Z,41.13
2023-04-11T04:30:30.128Z,36.92
2023-04-11T04:33:00.088Z,36.42
2023-04-11T04:35:28.687Z,34.45
2023-04-11T04:37:57.156Z,39.22
2023-04-11T04:40:26.175Z,39.60
2023-04-11T04:42:58.730Z,40.13
2023-04-11T04:45:27.493Z,39.58
2023-04-11T04:47:55.842Z,36.13
2023-04-11T04:50:25.780Z,38.88
2023-04-11T04:52:54.062Z,42.28
2023-04-11T04:55:22.612Z,31.80
2023-04-11T04:57:50.796Z,41.47
2023-04-11T05:00:21.789Z,35.72
2023-04-11T05:02:54.856Z,35.85
2023-04-11T05:05:24.944Z,35.47
2023-04-11T05:07:53.132Z,42.15
2023-04-11T05:10:22.076Z,34.08
2023-04-11T05:12:50.401Z,30.67
2023-04-11T05:15:19.056Z,36.33
2023-04-11T05:17:47.300Z,35.83
2023-04-11T05:20:16.141Z,35.22
2023-04-11T05:22:45.771Z,40.80
2023-04-11T05:25:14.366Z,32.88
2023-04-11T05:27:42.752Z,21.90
2023-04-11T05:30:12.238Z,35.67
2023-04-11T05:32:40.654Z,40.05
2023-04-11T05:35:09.699Z,46.75
2023-04-11T05:37:38.011Z,37.13
2023-04-11T05:40:09.622Z,28.70
2023-04-11T05:42:37.907Z,33.97
2023-04-11T05:45:07.283Z,34.35
2023-04-11T05:47:35.746Z,27.42
2023-04-11T05:50:04.391Z,33.28
2023-04-11T05:52:32.636Z,32.78
2023-04-11T05:55:01.412Z,24.85
2023-04-11T05:57:31.268Z,27.05
2023-04-11T06:00:01.993Z,25.98
2023-04-11T06:02:30.562Z,23.17
2023-04-11T06:04:59.323Z,22.52
2023-04-11T06:07:28.405Z,25.60
2023-04-11T06:09:56.913Z,28.02
2023-04-11T06:12:25.190Z,26.67
2023-04-11T06:14:55.131Z,28.20
2023-04-11T06:17:23.413Z,24.88
2023-04-11T06:19:52.118Z,24.35
2023-04-11T06:22:20.444Z,24.15
2023-04-11T06:24:49.028Z,27.75
2023-04-11T06:27:17.363Z,31.02
2023-04-11T06:29:46.012Z,29.15
2023-04-11T06:32:15.908Z,21.92
2023-04-11T06:34:44.483Z,26.95
2023-04-11T06:37:12.685Z,27.45
2023-04-11T06:39:41.189Z,25.00
2023-04-11T06:42:09.338Z,31.90
2023-04-11T06:44:38.057Z,23.98
2023-04-11T06:47:06.710Z,21.00
2023-04-11T06:49:36.715Z,28.85
2023-04-11T06:52:04.928Z,21.63
2023-04-11T06:54:33.428Z,23.90
2023-04-11T06:57:03.396Z,22.92
2023-04-11T06:59:31.885Z,21.52
2023-04-11T07:02:00.634Z,28.02
2023-04-11T07:04:29.324Z,18.63
2023-04-11T07:06:59.046Z,20.63
2023-04-11T07:09:27.626Z,21.92
2023-04-11T07:11:56.281Z,18.73
2023-04-11T07:14:25.090Z,20.75
2023-04-11T07:16:53.394Z,20.73
2023-04-11T07:19:21.791Z,29.38
2023-04-11T07:21:49.972Z,18.98
2023-04-11T07:24:21.128Z,20.70
2023-04-11T07:26:50.630Z,16.02
2023-04-11T07:29:19.196Z,23.70
2023-04-11T07:31:47.523Z,22.27
2023-04-11T07:34:16.073Z,16.80
2023-04-11T07:36:44.316Z,18.98
2023-04-11T07:39:14.136Z,12.63
2023-04-11T07:41:44.958Z,12.55
2023-04-11T07:44:13.467Z,17.77
2023-04-11T07:46:41.715Z,12.02
2023-04-11T07:49:10.327Z,13.77
2023-04-11T07:51:38.801Z,17.88
2023-04-11T07:54:08.758Z,16.90
2023-04-11T07:56:36.931Z,12.38
2023-04-11T07:59:07.137Z,19.33
2023-04-11T08:01:35.349Z,14.98
2023-04-11T08:04:04.426Z,18.02
2023-04-11T08:06:33.244Z,11.90
2023-04-11T08:09:01.997Z,12.63
2023-04-11T08:11:30.340Z,19.17
2023-04-11T08:13:59.097Z,8.85
2023-04-11T08:16:28.854Z,8.70
2023-04-11T08:18:58.455Z,8.75
2023-04-11T08:21:27.401Z,10.85
2023-04-11T08:23:56.369Z,9.90
2023-04-11T08:26:24.787Z,11.27
2023-04-11T08:28:53.294Z,17.33
2023-04-11T08:31:21.695Z,8.45
2023-04-11T08:33:51.858Z,8.65
2023-04-11T08:36:20.313Z,12.38
2023-04-11T08:38:48.820Z,7.20
2023-04-11T08:41:16.985Z,8.65
2023-04-11T08:43:46.961Z,7.30
2023-04-11T08:46:15.371Z,9.15
2023-04-11T08:48:44.053Z,8.95
2023-04-11T08:51:14.800Z,11.93
2023-04-11T08:53:44.115Z,8.73
2023-04-11T08:56:16.935Z,18.23
2023-04-11T08:58:45.730Z,7.55
2023-04-11T09:01:27.672Z,13.60
2023-04-11T09:03:56.966Z,8.52
2023-04-11T09:06:30.763Z,6.00
2023-04-11T09:09:00.538Z,9.05
2023-04-11T09:11:29.099Z,12.63
2023-04-11T09:14:07.942Z,10.95
2023-04-11T09:16:36.554Z,13.65
2023-04-11T09:19:13.779Z,12.15
2023-04-11T09:21:51.058Z,8.95
2023-04-11T09:24:19.715Z,9.05
2023-04-11T09:26:47.933Z,7.53
2023-04-11T09:29:36.142Z,6.32
2023-04-11T09:32:04.685Z,7.32
2023-04-11T09:34:37.528Z,6.28
2023-04-11T09:37:07.185Z,7.80
2023-04-11T09:39:35.874Z,8.73
2023-04-11T09:42:24.920Z,8.27
2023-04-11T09:44:54.393Z,8.82
2023-04-11T09:47:22.888Z,6.55
2023-04-11T09:49:52.879Z,6.75
2023-04-11T09:52:22.956Z,10.32
2023-04-11T09:54:52.862Z,6.25
2023-04-11T09:57:23.764Z,6.35
2023-04-11T09:59:55.101Z,6.78
2023-04-11T10:02:23.552Z,6.20
2023-04-11T10:04:53.471Z,9.35
2023-04-11T10:07:23.797Z,5.05
2023-04-11T10:09:53.123Z,6.78
2023-04-11T10:12:35.300Z,4.88
2023-04-11T10:15:10.772Z,8.93
2023-04-11T10:17:40.699Z,6.68
2023-04-11T10:20:43.419Z,6.40
2023-04-11T10:23:13.693Z,4.28
2023-04-11T10:25:52.762Z,8.63
2023-04-11T10:28:35.476Z,8.40
2023-04-11T10:31:07.090Z,5.95
2023-04-11T10:33:36.189Z,5.50
2023-04-11T10:36:06.606Z,5.45
2023-04-11T10:38:50.227Z,5.10
2023-04-11T10:41:21.043Z,4.13
2023-04-11T10:43:50.125Z,4.45
2023-04-11T10:46:19.838Z,3.00
2023-04-11T10:49:01.801Z,5.80
2023-04-11T10:51:31.664Z,17.25
2023-04-11T10:54:02.620Z,6.78
2023-04-11T10:56:56.252Z,5.45
2023-04-11T10:59:58.193Z,6.93
2023-04-11T11:02:40.530Z,5.90
2023-04-11T11:05:24.945Z,4.80
2023-04-11T11:07:54.840Z,5.57
2023-04-11T11:10:46.256Z,4.95
2023-04-11T11:13:16.778Z,9.57
2023-04-11T11:15:49.404Z,4.72
2023-04-11T11:18:19.049Z,9.98
2023-04-11T11:20:47.259Z,3.90
2023-04-11T11:23:16.120Z,10.73
2023-04-11T11:25:55.514Z,4.22
2023-04-11T11:28:24.349Z,3.55
2023-04-11T11:30:55.105Z,5.82
2023-04-11T11:33:26.548Z,10.48
2023-04-11T11:35:57.126Z,5.45
2023-04-11T11:38:28.429Z,6.05
2023-04-11T11:40:59.394Z,4.25
2023-04-11T11:43:28.435Z,5.53
2023-04-11T11:46:10.652Z,3.45
2023-04-11T11:48:39.618Z,3.38
2023-04-11T11:51:08.172Z,6.50
2023-04-11T11:53:37.173Z,6.88
2023-04-11T11:56:17.116Z,5.57
2023-04-11T11:58:46.126Z,6.22
2023-04-11T12:01:16.320Z,4.22
2023-04-11T12:03:45.429Z,4.88
2023-04-11T12:06:14.005Z,2.92
2023-04-11T12:08:50.186Z,21.13
2023-04-11T12:11:19.870Z,9.82
2023-04-11T12:13:54.150Z,3.38
2023-04-11T12:16:25.739Z,7.00
2023-04-11T12:18:54.526Z,6.30
2023-04-11T12:21:22.916Z,11.05
2023-04-11T12:23:51.490Z,2.80
2023-04-11T12:26:21.773Z,9.15
2023-04-11T12:28:50.556Z,4.25
2023-04-11T12:31:20.166Z,5.72
2023-04-11T12:33:48.697Z,15.30
2023-04-11T12:36:16.960Z,5.30
2023-04-11T12:38:45.678Z,4.68
2023-04-11T12:41:31.567Z,4.13
2023-04-11T12:44:03.990Z,8.82
2023-04-11T12:46:33.733Z,2.90
2023-04-11T12:49:02.257Z,3.78
2023-04-11T12:51:31.352Z,6.47
2023-04-11T12:53:59.879Z,5.80
2023-04-11T12:56:28.142Z,7.32
2023-04-11T12:58:57.053Z,11.52
2023-04-11T13:01:27.314Z,4.78
2023-04-11T13:03:56.074Z,5.00
2023-04-11T13:06:24.607Z,5.07
2023-04-11T13:08:53.297Z,3.78
2023-04-11T13:11:21.756Z,3.28
2023-04-11T13:13:51.983Z,4.57
2023-04-11T13:16:20.397Z,3.13
2023-04-11T13:18:50.951Z,3.65
2023-04-11T13:21:19.352Z,3.13
2023-04-11T13:23:47.870Z,14.98
2023-04-11T13:26:16.145Z,3.53
2023-04-11T13:28:44.651Z,4.80
2023-04-11T13:31:14.510Z,7.03
2023-04-11T13:33:44.888Z,5.28
2023-04-11T13:36:14.613Z,2.67
2023-04-11T13:38:43.063Z,4.45
2023-04-11T13:41:12.578Z,2.92
2023-04-11T13:43:41.656Z,2.67
2023-04-11T13:46:09.968Z,2.97
2023-04-11T13:48:38.819Z,2.83
2023-04-11T13:51:07.419Z,3.42
2023-04-11T13:53:37.277Z,8.52
2023-04-11T13:56:06.067Z,8.50
2023-04-11T13:58:35.458Z,3.90
2023-04-11T14:01:03.703Z,4.93
2023-04-11T14:03:33.846Z,4.43
2023-04-11T14:06:03.460Z,8.02
2023-04-11T14:08:32.136Z,4.03
2023-04-11T14:11:01.741Z,10.60
2023-04-11T14:13:30.437Z,3.88
2023-04-11T14:16:08.019Z,9.10
2023-04-11T14:18:37.374Z,8.35
2023-04-11T14:21:08.061Z,5.82
2023-04-11T14:23:37.830Z,7.25
2023-04-11T14:26:07.999Z,7.60
2023-04-11T14:28:36.760Z,13.07
2023-04-11T14:31:05.265Z,13.20
2023-04-11T14:33:34.028Z,6.55
2023-04-11T14:36:02.905Z,6.90
2023-04-11T14:38:31.335Z,6.07
2023-04-11T14:40:59.547Z,7.53
2023-04-11T14:43:29.621Z,7.72
2023-04-11T14:45:58.498Z,6.57
2023-04-11T14:48:28.784Z,4.90
2023-04-11T14:50:56.986Z,10.65
2023-04-11T14:53:25.758Z,11.63
2023-04-11T14:55:54.006Z,7.65
2023-04-11T14:58:22.640Z,12.35
2023-04-11T15:00:52.601Z,12.23
2023-04-11T15:03:21.727Z,11.25
2023-04-11T15:05:50.019Z,9.98
2023-04-11T15:08:18.794Z,10.85
2023-04-11T15:10:49.598Z,11.02
2023-04-11T15:13:18.146Z,13.13
2023-04-11T15:15:46.307Z,11.75
2023-04-11T15:18:26.549Z,11.75
2023-04-11T15:20:56.326Z,11.75
2023-04-11T15:23:25.557Z,11.82
2023-04-11T15:25:55.406Z,14.18
2023-04-11T15:28:25.535Z,13.30
2023-04-11T15:30:55.209Z,11.65
2023-04-11T15:33:25.173Z,15.85
2023-04-11T15:35:54.322Z,11.13
2023-04-11T15:38:23.317Z,11.80
2023-04-11T15:40:51.936Z,9.32
2023-04-11T15:43:20.653Z,12.55
2023-04-11T15:45:48.989Z,13.98
2023-04-11T15:48:18.066Z,9.98
2023-04-11T15:50:47.766Z,7.28
2023-04-11T15:53:16.574Z,7.55
2023-04-11T15:55:45.031Z,7.70
2023-04-11T15:58:13.828Z,8.13
2023-04-11T16:00:44.024Z,5.53
2023-04-11T16:03:12.855Z,4.63
2023-04-11T16:05:43.208Z,6.00
2023-04-11T16:08:13.282Z,4.68
2023-04-11T16:10:41.492Z,5.82
2023-04-11T16:13:10.753Z,6.82
2023-04-11T16:15:38.983Z,5.53
2023-04-11T16:18:07.585Z,2.97
2023-04-11T16:20:36.125Z,1.90
2023-04-11T16:23:04.713Z,2.08
2023-04-11T16:25:34.342Z,2.88
2023-04-11T16:28:03.532Z,3.65
2023-04-11T16:30:31.777Z,6.90
2023-04-11T16:33:00.443Z,4.65
2023-04-11T16:35:28.846Z,6.15
2023-04-11T16:37:57.310Z,3.72
2023-04-11T16:40:25.797Z,4.88
2023-04-11T16:42:55.695Z,4.20
2023-04-11T16:45:23.974Z,3.70
2023-04-11T16:47:52.537Z,3.80
2023-04-11T16:50:23.896Z,5.70
2023-04-11T16:52:52.513Z,4.82
2023-04-11T16:55:21.161Z,3.75
2023-04-11T16:57:49.673Z,3.15
2023-04-11T17:00:20.779Z,1.35
2023-04-11T17:02:50.919Z,3.95
2023-04-11T17:05:20.008Z,1.45
2023-04-11T17:07:48.618Z,1.95
2023-04-11T17:10:17.038Z,2.05
2023-04-11T17:12:45.628Z,1.58
2023-04-11T17:15:13.998Z,3.85
2023-04-11T17:17:44.339Z,3.17
2023-04-11T17:20:13.220Z,4.38
2023-04-11T17:22:44.407Z,2.92
2023-04-11T17:25:12.696Z,5.07
2023-04-11T17:27:41.758Z,2.88
2023-04-11T17:30:12.036Z,3.75
2023-04-11T17:32:40.719Z,3.20
2023-04-11T17:35:11.934Z,3.22
2023-04-11T17:37:40.780Z,3.50
2023-04-11T17:40:14.271Z,2.28
2023-04-11T17:42:43.247Z,2.53
2023-04-11T17:47:44.881Z,4.50
2023-04-11T17:50:15.462Z,4.80
2023-04-11T17:52:46.196Z,6.85
2023-04-11T17:55:18.793Z,3.30
2023-04-11T17:57:49.081Z,3.58
2023-04-11T18:00:22.803Z,3.25
2023-04-11T18:02:57.929Z,3.03
2023-04-11T18:05:31.376Z,4.80
2023-04-11T18:08:02.630Z,5.43
2023-04-11T18:10:31.395Z,4.50
2023-04-11T18:13:00.451Z,4.50
2023-04-11T18:15:28.871Z,6.05
2023-04-11T18:17:57.516Z,4.25
2023-04-11T18:20:27.697Z,5.65
2023-04-11T18:22:57.539Z,9.00
2023-04-11T18:25:25.929Z,4.32
2023-04-11T18:27:54.883Z,8.00
2023-04-11T18:30:23.409Z,3.92
2023-04-11T18:32:54.037Z,4.70
2023-04-11T18:35:24.644Z,5.50
2023-04-11T18:37:54.633Z,5.40
2023-04-11T18:40:23.054Z,6.07
2023-04-11T18:42:53.299Z,5.95
2023-04-11T18:45:23.080Z,8.20
2023-04-11T18:47:52.012Z,7.30
2023-04-11T18:50:20.400Z,11.57
2023-04-11T18:52:53.588Z,6.13
2023-04-11T18:55:25.700Z,9.07
2023-04-11T18:57:57.824Z,4.97
2023-04-11T19:00:29.614Z,8.50
2023-04-11T19:02:58.409Z,10.70
2023-04-11T19:05:27.576Z,7.75
2023-04-11T19:07:56.959Z,10.00
2023-04-11T19:10:26.634Z,5.35
2023-04-11T19:12:55.078Z,4.18
2023-04-11T19:15:23.717Z,5.65
2023-04-11T19:17:52.296Z,3.25
2023-04-11T19:20:20.758Z,6.70
2023-04-11T19:22:49.316Z,5.13
2023-04-11T19:25:17.628Z,5.97
2023-04-11T19:27:47.484Z,5.32
2023-04-11T19:30:15.791Z,11.02
2023-04-11T19:32:47.238Z,6.85
2023-04-11T19:35:15.674Z,4.53
2023-04-11T19:37:44.217Z,6.30
2023-04-11T19:40:13.761Z,5.90
2023-04-11T19:42:43.097Z,7.43
2023-04-11T19:45:13.070Z,5.63
2023-04-11T19:47:42.365Z,6.38
2023-04-11T19:50:14.772Z,4.63
2023-04-11T19:52:43.998Z,9.88
2023-04-11T19:55:13.154Z,3.88
2023-04-11T19:57:43.760Z,3.53
2023-04-11T20:00:16.068Z,5.22
2023-04-11T20:02:46.604Z,4.28
2023-04-11T20:05:17.005Z,6.57
2023-04-11T20:07:45.773Z,4.10
2023-04-11T20:10:15.511Z,5.57
2023-04-11T20:12:43.961Z,8.10
2023-04-11T20:15:13.733Z,3.60
2023-04-11T20:17:44.447Z,3.15
2023-04-11T20:20:16.584Z,4.85
2023-04-11T20:22:45.859Z,4.93
2023-04-11T20:25:14.478Z,4.30
2023-04-11T20:27:44.236Z,5.65
2023-04-11T20:30:17.254Z,6.13
2023-04-11T20:32:46.061Z,6.40
2023-04-11T20:35:14.403Z,4.13
2023-04-11T20:37:43.988Z,4.15
2023-04-11T20:40:13.965Z,9.63
2023-04-11T20:42:43.118Z,5.13
2023-04-11T20:45:15.780Z,6.47
2023-04-11T20:47:46.298Z,5.13
2023-04-11T20:50:15.905Z,3.50
2023-04-11T20:52:46.672Z,5.18
2023-04-11T20:55:16.793Z,4.38
2023-04-11T20:57:45.702Z,4.35
2023-04-11T21:00:18.632Z,4.80
2023-04-11T21:02:50.241Z,5.13
2023-04-11T21:05:21.964Z,7.70
2023-04-11T21:07:50.470Z,4.60
2023-04-11T21:12:51.540Z,7.65
2023-04-11T21:15:22.247Z,6.97
2023-04-11T21:17:52.240Z,8.52
2023-04-11T21:20:22.517Z,6.55
2023-04-11T21:22:53.786Z,5.60
2023-04-11T21:25:22.917Z,6.07
2023-04-11T21:27:51.729Z,9.63
2023-04-11T21:30:21.516Z,6.40
2023-04-11T21:32:50.143Z,6.95
2023-04-11T21:35:18.391Z,5.25
2023-04-11T21:37:49.069Z,11.07
2023-04-11T21:40:17.666Z,7.93
2023-04-11T21:42:46.228Z,6.23
2023-04-11T21:45:14.512Z,9.80
2023-04-11T21:47:44.417Z,6.30
2023-04-11T21:50:13.076Z,8.68
2023-04-11T21:52:41.596Z,8.35
2023-04-11T21:55:11.509Z,6.05
2023-04-11T21:57:40.036Z,8.57
2023-04-11T22:00:11.070Z,7.10
2023-04-11T22:02:40.631Z,6.93
2023-04-11T22:05:12.730Z,7.03
2023-04-11T22:07:47.512Z,6.32
2023-04-11T22:10:23.730Z,6.25
2023-04-11T22:12:54.499Z,9.93
2023-04-11T22:15:24.053Z,7.10
2023-04-11T22:17:56.401Z,7.00
2023-04-11T22:20:26.283Z,5.50
2023-04-11T22:22:56.805Z,7.53
2023-04-11T22:25:25.283Z,6.63
2023-04-11T22:27:54.505Z,10.30
2023-04-11T22:30:24.317Z,8.57
2023-04-11T22:32:54.268Z,9.20
2023-04-11T22:35:23.359Z,9.95
2023-04-11T22:37:55.434Z,11.23
2023-04-11T22:40:23.864Z,9.68
2023-04-11T22:42:52.917Z,10.85
2023-04-11T22:45:22.643Z,10.02
2023-04-11T22:47:54.658Z,7.72
2023-04-11T22:50:22.935Z,11.88
2023-04-11T22:52:54.800Z,9.23
2023-04-11T22:55:25.035Z,7.70
2023-04-11T22:57:53.910Z,11.00
2023-04-11T23:00:24.068Z,7.85
2023-04-11T23:02:52.893Z,14.07
2023-04-11T23:05:21.398Z,9.38
2023-04-11T23:07:50.186Z,9.50
2023-04-11T23:10:19.891Z,8.52
2023-04-11T23:12:49.542Z,6.95
2023-04-11T23:15:18.453Z,7.70
2023-04-11T23:17:47.089Z,8.70
2023-04-11T23:20:15.817Z,7.45
2023-04-11T23:22:44.676Z,9.38
2023-04-11T23:25:15.452Z,7.95
2023-04-11T23:27:45.933Z,9.57
2023-04-11T23:30:17.906Z,8.32
2023-04-11T23:32:47.173Z,10.13
2023-04-11T23:35:17.135Z,10.82
2023-04-11T23:37:45.901Z,7.53
2023-04-11T23:40:14.480Z,9.63
2023-04-11T23:42:43.136Z,8.65
2023-04-11T23:45:15.002Z,7.40
2023-04-11T23:47:43.549Z,10.27
2023-04-11T23:50:12.508Z,9.02
2023-04-11T23:52:41.081Z,10.75
2023-04-11T23:55:10.031Z,8.10
2023-04-11T23:57:38.535Z,12.63
